This is the latest recevied weather packets stored in our database for station/object N7IPB-1. If no packets are shown the sender has not sent any weather packets the latest 10 day(s).
| Time | Temp. | Humidity | Pressure | Rain* | Wind** | Luminosity | Snow |
|---|---|---|---|---|---|---|---|
| 1777968437 | 12.22° C | 84% | 1012.2 hPa | 0 mm | - | - | - |
| 1777964837 | 12.78° C | 85% | 1011.4 hPa | 0 mm | - | - | - |
| 1777960637 | 13.33° C | 84% | 1010.8 hPa | 0 mm | - | - | - |
| 1777958837 | 13.33° C | 84% | 1010.6 hPa | 0 mm | - | - | - |
| 1777957037 | 13.89° C | 82% | 1010.3 hPa | 0 mm | - | - | - |
| 1777955838 | 14.44° C | 80% | 1010.1 hPa | 0 mm | - | - | - |
| 1777954036 | 15.56° C | 77% | 1009.7 hPa | 0 mm | - | - | - |
| 1777952857 | 16.67° C | 73% | 1009.5 hPa | 0 mm | - | - | - |
| 1777952257 | 17.22° C | 72% | 1009.4 hPa | 0 mm | - | - | - |
| 1777951037 | 18.33° C | 69% | 1009.1 hPa | 0 mm | - | - | - |
| 1777950436 | 18.33° C | 67% | 1009 hPa | 0 mm | - | - | - |
| 1777945637 | 22.22° C | 55% | - | 0 mm | - | - | - |
| 1777944456 | 23.89° C | 53% | - | 0 mm | - | - | - |
| 1777940236 | 25° C | 52% | - | 0 mm | - | - | - |
| 1777939036 | 24.44° C | 53% | - | 0 mm | - | - | - |
| 1777936036 | 25° C | 51% | 1008.7 hPa | 0 mm | - | - | - |
| 1777935457 | 24.44° C | 52% | 1009 hPa | 0 mm | - | - | - |
| 1777931236 | 25° C | 45% | 1009.5 hPa | 0 mm | - | - | - |
| 1777930037 | 24.44° C | 52% | 1009.7 hPa | 0 mm | - | - | - |
| 1777928236 | 24.44° C | 51% | 1009.8 hPa | 0 mm | - | - | - |
| 1777927657 | 23.89° C | 49% | 1009.8 hPa | 0 mm | - | - | - |
| 1777922237 | 22.22° C | 55% | 1010.3 hPa | 0 mm | - | - | - |
| 1777918636 | 20.56° C | 58% | 1010.7 hPa | 0 mm | - | - | - |
| 1777915656 | 19.44° C | 63% | 1010.5 hPa | 0 mm | - | - | - |
| 1777914435 | 18.89° C | 63% | 1010.4 hPa | 0 mm | - | - | - |
* Rain latest hour (hover to see other rain measurements)
** Current wind speed in m/s (hover to see current wind gust speed)